Time,TemperatureF,DewpointF,PressureIn,WindDirection,WindDirectionDegrees,WindSpeedMPH,WindSpeedGustMPH,Humidity,HourlyPrecipIn,Conditions,Clouds,dailyrainin,SoftwareType,DateUTC
2013-04-20 00:12:00,42.0,33.0,29.81,WSW,254,0.0,4.0,71,0.00,,,0.00,weatherlink.com 1.10,2013-04-20 06:12:00,
2013-04-20 00:27:00,42.1,34.0,29.81,SSE,161,3.0,10.0,72,0.00,,,0.00,weatherlink.com 1.10,2013-04-20 06:27:00,
2013-04-20 00:42:00,42.8,33.0,29.81,SSE,159,0.0,9.0,69,0.00,,,0.00,weatherlink.com 1.10,2013-04-20 06:42:00,
2013-04-20 00:57:00,43.4,33.0,29.82,SSE,150,6.0,12.0,67,0.00,,,0.00,weatherlink.com 1.10,2013-04-20 06:57:00,
2013-04-20 01:12:00,43.8,33.0,29.82,SSE,158,1.0,10.0,66,0.00,,,0.00,weatherlink.com 1.10,2013-04-20 07:12:00,
2013-04-20 01:27:00,43.1,33.0,29.82,SSE,161,3.0,10.0,68,0.00,,,0.00,weatherlink.com 1.10,2013-04-20 07:27:00,
2013-04-20 01:42:00,42.6,33.0,29.82,South,174,2.0,9.0,70,0.00,,,0.00,weatherlink.com 1.10,2013-04-20 07:42:00,
2013-04-20 01:57:00,43.4,33.0,29.82,SSE,149,8.0,11.0,68,0.00,,,0.00,weatherlink.com 1.10,2013-04-20 07:57:00,
2013-04-20 02:12:00,43.9,34.0,29.82,SSE,168,5.0,8.0,67,0.00,,,0.00,weatherlink.com 1.10,2013-04-20 08:12:00,
2013-04-20 02:27:00,44.5,34.0,29.82,SSE,157,7.0,9.0,66,0.00,,,0.00,weatherlink.com 1.10,2013-04-20 08:27:00,
2013-04-20 02:42:00,44.8,34.0,29.81,SE,146,3.0,9.0,65,0.00,,,0.00,weatherlink.com 1.10,2013-04-20 08:42:00,
2013-04-20 02:57:00,44.2,34.0,29.81,SSE,155,5.0,7.0,67,0.00,,,0.00,weatherlink.com 1.10,2013-04-20 08:57:00,
2013-04-20 03:12:00,44.4,34.0,29.81,SSE,162,3.0,5.0,67,0.00,,,0.00,weatherlink.com 1.10,2013-04-20 09:12:00,
2013-04-20 03:28:00,45.4,34.0,29.81,SSE,161,4.0,11.0,65,0.00,,,0.00,weatherlink.com 1.10,2013-04-20 09:28:00,
2013-04-20 03:43:00,45.0,34.0,29.80,SSE,151,6.0,10.0,65,0.00,,,0.00,weatherlink.com 1.10,2013-04-20 09:43:00,
2013-04-20 03:58:00,45.1,34.0,29.81,South,184,0.0,8.0,65,0.00,,,0.00,weatherlink.com 1.10,2013-04-20 09:58:00,
2013-04-20 04:13:00,45.8,33.0,29.81,South,171,6.0,12.0,62,0.00,,,0.00,weatherlink.com 1.10,2013-04-20 10:13:00,
2013-04-20 04:28:00,46.3,33.0,29.81,WSW,248,5.0,10.0,61,0.00,,,0.00,weatherlink.com 1.10,2013-04-20 10:28:00,
2013-04-20 04:43:00,46.4,33.0,29.81,WSW,237,7.0,8.0,60,0.00,,,0.00,weatherlink.com 1.10,2013-04-20 10:43:00,
2013-04-20 04:58:00,46.1,33.0,29.81,SE,139,2.0,11.0,61,0.00,,,0.00,weatherlink.com 1.10,2013-04-20 10:58:00,
2013-04-20 05:13:00,46.0,33.0,29.81,SSE,160,3.0,6.0,62,0.00,,,0.00,weatherlink.com 1.10,2013-04-20 11:13:00,
2013-04-20 05:28:00,46.1,34.0,29.81,SSE,155,4.0,9.0,62,0.00,,,0.00,weatherlink.com 1.10,2013-04-20 11:28:00,
2013-04-20 05:43:00,45.6,34.0,29.81,South,178,2.0,6.0,63,0.00,,,0.00,weatherlink.com 1.10,2013-04-20 11:43:00,
2013-04-20 05:58:00,45.5,33.0,29.82,WSW,246,0.0,4.0,63,0.00,,,0.00,weatherlink.com 1.10,2013-04-20 11:58:00,
2013-04-20 06:13:00,45.6,33.0,29.82,SSE,161,1.0,5.0,62,0.00,,,0.00,weatherlink.com 1.10,2013-04-20 12:13:00,
2013-04-20 06:28:00,45.6,33.0,29.82,South,180,0.0,4.0,61,0.00,,,0.00,weatherlink.com 1.10,2013-04-20 12:28:00,
2013-04-20 06:43:00,45.4,33.0,29.82,SSE,152,0.0,4.0,62,0.00,,,0.00,weatherlink.com 1.10,2013-04-20 12:43:00,
2013-04-20 06:58:00,45.3,32.0,29.82,South,175,0.0,4.0,61,0.00,,,0.00,weatherlink.com 1.10,2013-04-20 12:58:00,
2013-04-20 07:13:00,45.4,32.0,29.82,South,169,2.0,8.0,60,0.00,,,0.00,weatherlink.com 1.10,2013-04-20 13:13:00,
2013-04-20 07:28:00,45.6,32.0,29.83,SSE,161,6.0,6.0,59,0.00,,,0.00,weatherlink.com 1.10,2013-04-20 13:28:00,
2013-04-20 07:43:00,46.0,33.0,29.83,SW,219,0.0,4.0,60,0.00,,,0.00,weatherlink.com 1.10,2013-04-20 13:43:00,
2013-04-20 07:58:00,47.5,33.0,29.83,ESE,109,3.0,4.0,57,0.00,,,0.00,weatherlink.com 1.10,2013-04-20 13:58:00,
2013-04-20 08:13:00,49.4,33.0,29.83,SSE,150,8.0,8.0,53,0.00,,,0.00,weatherlink.com 1.10,2013-04-20 14:13:00,
2013-04-20 08:28:00,50.5,32.0,29.83,ESE,118,11.0,11.0,49,0.00,,,0.00,weatherlink.com 1.10,2013-04-20 14:28:00,
2013-04-20 08:43:00,50.4,32.0,29.83,South,169,1.0,13.0,50,0.00,,,0.00,weatherlink.com 1.10,2013-04-20 14:43:00,
2013-04-20 08:58:00,49.5,32.0,29.83,WSW,242,6.0,17.0,51,0.00,,,0.00,weatherlink.com 1.10,2013-04-20 14:58:00,
2013-04-20 09:13:00,49.6,32.0,29.84,WSW,252,9.0,12.0,51,0.00,,,0.00,weatherlink.com 1.10,2013-04-20 15:13:00,
2013-04-20 09:28:00,49.0,32.0,29.84,WSW,237,3.0,13.0,52,0.00,,,0.00,weatherlink.com 1.10,2013-04-20 15:28:00,
2013-04-20 09:43:00,50.0,33.0,29.83,West,263,8.0,10.0,52,0.00,,,0.00,weatherlink.com 1.10,2013-04-20 15:43:00,
2013-04-20 09:58:00,51.4,33.0,29.83,West,261,7.0,13.0,50,0.00,,,0.00,weatherlink.com 1.10,2013-04-20 15:58:00,
2013-04-20 10:13:00,51.7,33.0,29.84,SSE,168,3.0,18.0,50,0.00,,,0.00,weatherlink.com 1.10,2013-04-20 16:13:00,
2013-04-20 10:28:00,52.1,31.0,29.84,SW,225,7.0,14.0,45,0.00,,,0.00,weatherlink.com 1.10,2013-04-20 16:28:00,
2013-04-20 10:43:00,51.9,32.0,29.83,WSW,254,7.0,14.0,47,0.00,,,0.00,weatherlink.com 1.10,2013-04-20 16:43:00,
2013-04-20 10:58:00,51.1,32.0,29.84,SW,233,3.0,14.0,48,0.00,,,0.00,weatherlink.com 1.10,2013-04-20 16:58:00,
2013-04-20 11:13:00,51.4,33.0,29.84,SSW,213,1.0,14.0,50,0.00,,,0.00,weatherlink.com 1.10,2013-04-20 17:13:00,
2013-04-20 11:28:00,52.4,32.0,29.84,West,269,11.0,19.0,46,0.00,,,0.00,weatherlink.com 1.10,2013-04-20 17:28:00,
2013-04-20 11:43:00,54.2,33.0,29.84,WSW,257,11.0,17.0,44,0.00,,,0.00,weatherlink.com 1.10,2013-04-20 17:43:00,
2013-04-20 11:58:00,52.9,31.0,29.84,WSW,254,3.0,17.0,44,0.00,,,0.00,weatherlink.com 1.10,2013-04-20 17:58:00,
2013-04-20 12:13:00,53.0,30.0,29.84,WNW,302,11.0,16.0,41,0.00,,,0.00,weatherlink.com 1.10,2013-04-20 18:13:00,
2013-04-20 12:28:00,55.2,31.0,29.84,West,263,3.0,22.0,40,0.00,,,0.00,weatherlink.com 1.10,2013-04-20 18:28:00,
2013-04-20 12:43:00,56.0,30.0,29.84,West,267,8.0,22.0,37,0.00,,,0.00,weatherlink.com 1.10,2013-04-20 18:43:00,
2013-04-20 12:58:00,56.0,31.0,29.84,West,277,9.0,17.0,39,0.00,,,0.00,weatherlink.com 1.10,2013-04-20 18:58:00,
2013-04-20 13:13:00,56.8,32.0,29.84,SW,233,14.0,19.0,39,0.00,,,0.00,weatherlink.com 1.10,2013-04-20 19:13:00,
2013-04-20 13:28:00,55.8,31.0,29.83,SE,146,6.0,18.0,39,0.00,,,0.00,weatherlink.com 1.10,2013-04-20 19:28:00,
2013-04-20 13:43:00,54.5,32.0,29.84,West,261,13.0,18.0,43,0.00,,,0.00,weatherlink.com 1.10,2013-04-20 19:43:00,
2013-04-20 13:58:00,54.9,33.0,29.84,WSW,250,12.0,20.0,44,0.00,,,0.00,weatherlink.com 1.10,2013-04-20 19:58:00,
2013-04-20 14:13:00,55.0,34.0,29.84,WSW,244,15.0,19.0,45,0.00,,,0.00,weatherlink.com 1.10,2013-04-20 20:13:00,
2013-04-20 14:28:00,55.6,33.0,29.83,WSW,242,10.0,16.0,43,0.00,,,0.00,weatherlink.com 1.10,2013-04-20 20:28:00,
2013-04-20 14:43:00,54.6,31.0,29.83,WNW,292,14.0,17.0,41,0.00,,,0.00,weatherlink.com 1.10,2013-04-20 20:43:00,
2013-04-20 14:58:00,55.7,30.0,29.82,WNW,294,2.0,21.0,37,0.00,,,0.00,weatherlink.com 1.10,2013-04-20 20:58:00,
2013-04-20 15:13:00,55.5,28.0,29.83,WSW,257,16.0,24.0,35,0.00,,,0.00,weatherlink.com 1.10,2013-04-20 21:13:00,
2013-04-20 15:28:00,54.5,30.0,29.83,West,261,9.0,17.0,39,0.00,,,0.00,weatherlink.com 1.10,2013-04-20 21:28:00,
2013-04-20 15:43:00,53.9,30.0,29.84,West,264,15.0,21.0,41,0.00,,,0.00,weatherlink.com 1.10,2013-04-20 21:43:00,
2013-04-20 15:58:00,54.2,31.0,29.84,West,265,6.0,20.0,41,0.00,,,0.00,weatherlink.com 1.10,2013-04-20 21:58:00,
2013-04-20 16:13:00,56.0,32.0,29.83,West,278,8.0,15.0,41,0.00,,,0.00,weatherlink.com 1.10,2013-04-20 22:13:00,
2013-04-20 16:28:00,55.7,30.0,29.83,West,277,10.0,22.0,38,0.00,,,0.00,weatherlink.com 1.10,2013-04-20 22:28:00,
2013-04-20 16:43:00,55.2,29.0,29.83,West,271,13.0,25.0,37,0.00,,,0.00,weatherlink.com 1.10,2013-04-20 22:43:00,
2013-04-20 16:58:00,56.3,29.0,29.83,West,276,5.0,16.0,36,0.00,,,0.00,weatherlink.com 1.10,2013-04-20 22:58:00,
2013-04-20 17:13:00,55.4,29.0,29.83,West,276,4.0,16.0,37,0.00,,,0.00,weatherlink.com 1.10,2013-04-20 23:13:00,
2013-04-20 17:28:00,55.3,29.0,29.83,West,260,10.0,16.0,36,0.00,,,0.00,weatherlink.com 1.10,2013-04-20 23:28:00,
2013-04-20 17:44:00,54.6,27.0,29.83,WNW,293,9.0,12.0,34,0.00,,,0.00,weatherlink.com 1.10,2013-04-20 23:44:00,
2013-04-20 17:59:00,53.6,28.0,29.83,WSW,258,4.0,12.0,38,0.00,,,0.00,weatherlink.com 1.10,2013-04-20 23:59:00,
2013-04-20 18:14:00,55.4,29.0,29.84,West,259,8.0,13.0,36,0.00,,,0.00,weatherlink.com 1.10,2013-04-21 00:14:00,
2013-04-20 18:29:00,53.9,27.0,29.84,SW,234,3.0,10.0,36,0.00,,,0.00,weatherlink.com 1.10,2013-04-21 00:29:00,
2013-04-20 18:44:00,52.4,30.0,29.84,WSW,247,3.0,19.0,42,0.00,,,0.00,weatherlink.com 1.10,2013-04-21 00:44:00,
2013-04-20 18:59:00,50.8,29.0,29.85,WSW,242,10.0,19.0,44,0.00,,,0.00,weatherlink.com 1.10,2013-04-21 00:59:00,
2013-04-20 19:14:00,52.1,31.0,29.86,SW,221,1.0,15.0,44,0.00,,,0.00,weatherlink.com 1.10,2013-04-21 01:14:00,
2013-04-20 19:29:00,53.0,28.0,29.85,WSW,244,15.0,15.0,39,0.00,,,0.00,weatherlink.com 1.10,2013-04-21 01:29:00,
2013-04-20 19:44:00,51.8,29.0,29.86,WSW,244,7.0,16.0,41,0.00,,,0.00,weatherlink.com 1.10,2013-04-21 01:44:00,
2013-04-20 19:59:00,49.7,28.0,29.87,West,273,4.0,18.0,44,0.00,,,0.00,weatherlink.com 1.10,2013-04-21 01:59:00,
2013-04-20 20:14:00,48.9,29.0,29.88,West,261,10.0,16.0,46,0.00,,,0.00,weatherlink.com 1.10,2013-04-21 02:14:00,
2013-04-20 20:29:00,48.2,29.0,29.88,West,273,4.0,14.0,47,0.00,,,0.00,weatherlink.com 1.10,2013-04-21 02:29:00,
2013-04-20 20:44:00,46.8,29.0,29.89,West,265,4.0,8.0,51,0.00,,,0.00,weatherlink.com 1.10,2013-04-21 02:44:00,
2013-04-20 20:59:00,46.6,29.0,29.89,SSE,165,1.0,9.0,51,0.00,,,0.00,weatherlink.com 1.10,2013-04-21 02:59:00,
2013-04-20 21:14:00,46.8,30.0,29.91,West,263,1.0,9.0,52,0.00,,,0.00,weatherlink.com 1.10,2013-04-21 03:14:00,
2013-04-20 21:29:00,46.7,30.0,29.91,WSW,243,3.0,3.0,52,0.00,,,0.00,weatherlink.com 1.10,2013-04-21 03:29:00,
2013-04-20 21:44:00,45.7,29.0,29.92,WSW,256,0.0,2.0,53,0.00,,,0.00,weatherlink.com 1.10,2013-04-21 03:44:00,
2013-04-20 21:59:00,45.5,29.0,29.93,WSW,247,0.0,0.0,53,0.00,,,0.00,weatherlink.com 1.10,2013-04-21 03:59:00,
2013-04-20 22:14:00,46.1,29.0,29.93,WSW,247,0.0,7.0,52,0.00,,,0.00,weatherlink.com 1.10,2013-04-21 04:14:00,
2013-04-20 22:29:00,44.5,32.0,29.95,NW,306,12.0,19.0,63,0.00,,,0.00,weatherlink.com 1.10,2013-04-21 04:29:00,
2013-04-20 22:44:00,40.8,34.0,29.97,NW,319,19.0,20.0,76,0.00,,,0.00,weatherlink.com 1.10,2013-04-21 04:44:00,
2013-04-20 22:59:00,36.7,32.0,29.98,NW,321,17.0,21.0,84,0.00,,,0.00,weatherlink.com 1.10,2013-04-21 04:59:00,
2013-04-20 23:14:00,35.1,31.0,30.00,NW,322,13.0,23.0,86,0.00,,,0.00,weatherlink.com 1.10,2013-04-21 05:14:00,
2013-04-20 23:29:00,33.5,30.0,30.02,NW,306,10.0,20.0,87,0.00,,,0.00,weatherlink.com 1.10,2013-04-21 05:29:00,
2013-04-20 23:44:00,33.0,30.0,30.03,WNW,302,5.0,12.0,88,0.00,,,0.00,weatherlink.com 1.10,2013-04-21 05:44:00,
2013-04-20 23:59:00,32.9,30.0,30.03,WNW,298,8.0,13.0,88,0.00,,,0.00,weatherlink.com 1.10,2013-04-21 05:59:00,